createdAt,value
2019-04-07T00:00:09.284Z,12.94
2019-04-07T00:02:37.046Z,12.63
2019-04-07T00:05:12.356Z,12.56
2019-04-07T00:07:34.523Z,12.67
2019-04-07T00:10:02.876Z,12.37
2019-04-07T00:12:31.047Z,12.28
2019-04-07T00:14:58.932Z,12.36
2019-04-07T00:17:27.243Z,12.08
2019-04-07T00:19:55.734Z,12.16
2019-04-07T00:22:23.839Z,12.33
2019-04-07T00:24:51.606Z,12.25
2019-04-07T00:27:19.987Z,12.16
2019-04-07T00:29:48.653Z,12.29
2019-04-07T00:32:16.753Z,12.50
2019-04-07T00:34:45.145Z,12.24
2019-04-07T00:37:13.923Z,12.46
2019-04-07T00:39:42.276Z,12.39
2019-04-07T00:42:10.468Z,12.30
2019-04-07T00:44:38.982Z,12.03
2019-04-07T00:47:07.383Z,12.78
2019-04-07T00:49:35.761Z,12.64
2019-04-07T00:52:05.060Z,12.75
2019-04-07T00:54:32.798Z,12.80
2019-04-07T00:57:00.990Z,12.74
2019-04-07T00:59:29.719Z,12.63
2019-04-07T01:01:58.009Z,12.96
2019-04-07T01:04:26.514Z,13.20
2019-04-07T01:06:54.850Z,13.28
2019-04-07T01:09:23.279Z,13.11
2019-04-07T01:11:52.275Z,13.00
2019-04-07T01:14:20.186Z,12.83
2019-04-07T01:16:48.219Z,12.96
2019-04-07T01:19:16.223Z,12.96
2019-04-07T01:21:44.488Z,12.97
2019-04-07T01:24:12.406Z,13.06
2019-04-07T01:26:40.494Z,13.12
2019-04-07T01:29:09.225Z,13.14
2019-04-07T01:31:37.372Z,13.05
2019-04-07T01:34:05.967Z,13.08
2019-04-07T01:36:33.856Z,13.38
2019-04-07T01:39:01.744Z,13.26
2019-04-07T01:41:51.446Z,12.97
2019-04-07T01:44:41.059Z,12.97
2019-04-07T01:47:27.761Z,13.09
2019-04-07T01:50:09.729Z,13.03
2019-04-07T01:52:43.802Z,13.33
2019-04-07T01:55:25.791Z,13.22
2019-04-07T01:58:12.760Z,13.13
2019-04-07T02:00:58.809Z,13.12
2019-04-07T02:03:37.333Z,13.14
2019-04-07T02:06:23.177Z,13.09
2019-04-07T02:09:10.290Z,12.77
2019-04-07T02:12:01.610Z,12.70
2019-04-07T02:14:54.876Z,12.76
2019-04-07T02:17:40.677Z,12.94
2019-04-07T02:20:34.496Z,12.43
2019-04-07T02:23:30.283Z,12.53
2019-04-07T02:26:09.285Z,12.67
2019-04-07T02:28:58.836Z,12.59
2019-04-07T02:31:52.269Z,12.78
2019-04-07T02:34:26.104Z,12.78
2019-04-07T02:37:07.309Z,12.62
2019-04-07T02:39:59.979Z,12.53
2019-04-07T02:42:48.324Z,12.62
2019-04-07T02:45:24.543Z,12.54
2019-04-07T02:48:24.143Z,12.42
2019-04-07T02:51:01.956Z,12.50
2019-04-07T02:54:03.770Z,12.21
2019-04-07T02:56:50.683Z,12.49
2019-04-07T02:59:33.438Z,12.26
2019-04-07T03:02:14.856Z,12.47
2019-04-07T03:05:06.308Z,12.61
2019-04-07T03:07:59.596Z,12.72
2019-04-07T03:10:42.384Z,12.44
2019-04-07T03:13:26.216Z,12.42
2019-04-07T03:16:07.616Z,12.05
2019-04-07T03:18:43.136Z,11.47
2019-04-07T03:21:28.391Z,11.47
2019-04-07T03:24:06.378Z,11.44
2019-04-07T03:26:51.973Z,11.60
2019-04-07T03:29:45.261Z,11.81
2019-04-07T03:32:46.671Z,12.22
2019-04-07T03:35:46.128Z,11.83
2019-04-07T03:38:36.679Z,12.01
2019-04-07T03:41:12.103Z,12.00
2019-04-07T03:43:48.040Z,11.99
2019-04-07T03:46:41.218Z,12.11
2019-04-07T03:49:43.383Z,12.29
2019-04-07T03:52:21.259Z,12.01
2019-04-07T03:55:06.642Z,11.98
2019-04-07T03:57:52.595Z,11.37
2019-04-07T04:00:41.085Z,11.51
2019-04-07T04:03:17.023Z,11.05
2019-04-07T04:06:06.842Z,11.87
2019-04-07T04:08:56.745Z,11.74
2019-04-07T04:11:43.760Z,11.79
2019-04-07T04:14:17.165Z,11.72
2019-04-07T04:16:49.104Z,11.92
2019-04-07T04:19:17.122Z,11.46
2019-04-07T04:21:45.588Z,11.18
2019-04-07T04:24:14.370Z,10.91
2019-04-07T04:26:42.233Z,10.99
2019-04-07T04:29:10.400Z,11.21
2019-04-07T04:31:38.918Z,11.54
2019-04-07T04:34:06.942Z,11.99
2019-04-07T04:36:36.003Z,11.83
2019-04-07T04:39:04.976Z,11.18
2019-04-07T04:41:33.026Z,11.45
2019-04-07T04:44:00.777Z,11.80
2019-04-07T04:46:28.633Z,11.42
2019-04-07T04:48:56.706Z,11.55
2019-04-07T04:51:24.884Z,11.89
2019-04-07T04:53:53.715Z,11.78
2019-04-07T04:56:22.741Z,11.67
2019-04-07T04:58:51.843Z,11.95
2019-04-07T05:01:20.457Z,12.25
2019-04-07T05:03:49.365Z,11.62
2019-04-07T05:06:17.967Z,11.46
2019-04-07T05:08:46.798Z,10.91
2019-04-07T05:11:14.695Z,11.43
2019-04-07T05:13:43.152Z,11.55
2019-04-07T05:16:11.840Z,11.85
2019-04-07T05:18:39.797Z,11.93
2019-04-07T05:21:07.619Z,12.25
2019-04-07T05:23:36.008Z,12.30
2019-04-07T05:26:04.561Z,12.64
2019-04-07T05:28:36.799Z,12.51
2019-04-07T05:31:02.468Z,12.63
2019-04-07T05:33:30.845Z,12.72
2019-04-07T05:35:59.302Z,12.94
2019-04-07T05:38:27.498Z,12.91
2019-04-07T05:40:55.427Z,12.87
2019-04-07T05:43:23.162Z,12.89
2019-04-07T05:45:51.117Z,13.06
2019-04-07T05:48:20.334Z,12.91
2019-04-07T05:50:48.842Z,13.05
2019-04-07T05:53:17.005Z,13.05
2019-04-07T05:55:44.927Z,13.18
2019-04-07T05:58:15.494Z,13.27
2019-04-07T06:00:45.930Z,13.27
2019-04-07T06:03:12.244Z,13.38
2019-04-07T06:05:40.130Z,13.49
2019-04-07T06:08:22.373Z,13.35
2019-04-07T06:10:38.663Z,13.36
2019-04-07T06:13:06.833Z,13.35
2019-04-07T06:15:34.564Z,13.56
2019-04-07T06:18:02.631Z,13.73
2019-04-07T06:20:31.303Z,13.43
2019-04-07T06:22:59.723Z,13.71
2019-04-07T06:25:33.129Z,13.63
2019-04-07T06:27:57.837Z,13.72
2019-04-07T06:30:28.074Z,13.75
2019-04-07T06:32:55.540Z,13.85
2019-04-07T06:35:23.536Z,13.90
2019-04-07T06:37:52.039Z,13.79
2019-04-07T06:40:20.642Z,13.90
2019-04-07T06:42:49.949Z,13.95
2019-04-07T06:45:21.132Z,13.82
2019-04-07T06:47:53.512Z,13.80
2019-04-07T06:50:47.391Z,13.92
2019-04-07T06:53:21.264Z,14.00
2019-04-07T06:56:11.125Z,14.34
2019-04-07T06:59:06.761Z,14.15
2019-04-07T07:02:12.090Z,14.10
2019-04-07T07:04:58.284Z,14.11
2019-04-07T07:07:49.062Z,14.09
2019-04-07T07:10:45.652Z,14.10
2019-04-07T07:13:36.619Z,14.04
2019-04-07T07:16:36.106Z,14.06
2019-04-07T07:19:14.151Z,14.13
2019-04-07T07:22:00.168Z,14.17
2019-04-07T07:24:28.108Z,14.21
2019-04-07T07:26:57.936Z,14.31
2019-04-07T07:29:26.866Z,14.20
2019-04-07T07:31:59.755Z,14.39
2019-04-07T07:34:24.305Z,14.43
2019-04-07T07:36:54.891Z,14.67
2019-04-07T07:39:23.135Z,14.87
2019-04-07T07:41:52.191Z,14.86
2019-04-07T07:44:20.674Z,14.99
2019-04-07T07:46:50.419Z,15.25
2019-04-07T07:49:18.208Z,14.70
2019-04-07T07:51:48.595Z,15.14
2019-04-07T07:54:16.168Z,14.90
2019-04-07T07:56:48.684Z,15.21
2019-04-07T07:59:13.765Z,15.49
2019-04-07T08:01:44.248Z,15.50
2019-04-07T08:04:11.240Z,15.50
2019-04-07T08:06:41.004Z,15.33
2019-04-07T08:09:13.715Z,15.53
2019-04-07T08:11:38.921Z,15.77
2019-04-07T08:14:07.824Z,15.84
2019-04-07T08:16:35.763Z,15.97
2019-04-07T08:19:04.014Z,15.68
2019-04-07T08:21:32.629Z,16.05
2019-04-07T08:24:01.345Z,16.13
2019-04-07T08:26:29.939Z,16.12
2019-04-07T08:28:57.982Z,16.09
2019-04-07T08:31:25.785Z,16.58
2019-04-07T08:33:53.769Z,16.23
2019-04-07T08:36:21.623Z,15.81
2019-04-07T08:38:51.748Z,16.17
2019-04-07T08:41:19.022Z,16.51
2019-04-07T08:43:47.046Z,16.57
2019-04-07T08:46:15.298Z,16.89
2019-04-07T08:48:43.188Z,16.66
2019-04-07T08:51:11.263Z,16.16
2019-04-07T08:53:43.553Z,16.60
2019-04-07T08:56:08.949Z,16.63
2019-04-07T08:58:38.885Z,16.98
2019-04-07T09:01:07.394Z,16.55
2019-04-07T09:03:35.832Z,16.02
2019-04-07T09:06:04.579Z,16.43
2019-04-07T09:08:34.635Z,16.65
2019-04-07T09:11:11.150Z,17.04
2019-04-07T09:13:39.553Z,17.39
2019-04-07T09:16:19.999Z,16.77
2019-04-07T09:19:05.640Z,16.90
2019-04-07T09:21:54.243Z,17.24
2019-04-07T09:24:40.077Z,17.87
2019-04-07T09:27:19.505Z,17.06
2019-04-07T09:30:02.447Z,17.56
2019-04-07T09:32:48.570Z,17.86
2019-04-07T09:35:36.243Z,17.62
2019-04-07T09:38:24.958Z,17.42
2019-04-07T09:41:06.363Z,17.42
2019-04-07T09:44:03.208Z,17.98
2019-04-07T09:46:51.439Z,18.07
2019-04-07T09:49:30.925Z,18.41
2019-04-07T09:52:15.045Z,18.76
2019-04-07T09:54:53.778Z,19.21
2019-04-07T09:57:40.813Z,19.47
2019-04-07T10:00:22.861Z,19.88
2019-04-07T10:03:12.683Z,20.08
2019-04-07T10:05:56.469Z,20.23
2019-04-07T10:08:55.450Z,20.08
2019-04-07T10:11:46.151Z,20.12
2019-04-07T10:14:43.965Z,19.15
2019-04-07T10:17:37.247Z,19.14
2019-04-07T10:20:36.936Z,19.39
2019-04-07T10:23:19.679Z,19.94
2019-04-07T10:26:10.415Z,19.41
2019-04-07T10:29:01.732Z,19.00
2019-04-07T10:32:01.258Z,18.87
2019-04-07T10:34:56.663Z,18.87
2019-04-07T10:37:37.847Z,17.47
2019-04-07T10:40:20.348Z,18.00
2019-04-07T10:43:07.530Z,19.05
2019-04-07T10:45:46.269Z,18.71
2019-04-07T10:48:35.695Z,18.66
2019-04-07T10:51:37.891Z,19.31
2019-04-07T10:54:25.166Z,19.29
2019-04-07T10:57:03.261Z,19.05
2019-04-07T11:00:05.865Z,18.89
2019-04-07T11:02:55.928Z,18.92
2019-04-07T11:05:34.566Z,19.22
2019-04-07T11:08:27.169Z,19.20
2019-04-07T11:11:16.885Z,19.53
2019-04-07T11:14:03.523Z,19.49
2019-04-07T11:16:49.842Z,19.41
2019-04-07T11:19:38.732Z,19.68
2019-04-07T11:22:25.546Z,18.75
2019-04-07T11:25:10.920Z,19.16
2019-04-07T11:28:00.369Z,19.14
2019-04-07T11:30:42.026Z,19.03
2019-04-07T11:33:35.085Z,18.81
2019-04-07T11:36:37.408Z,18.55
2019-04-07T11:39:27.536Z,18.87
2019-04-07T11:42:33.337Z,19.16
2019-04-07T11:45:26.970Z,19.08
2019-04-07T11:48:25.926Z,19.25
2019-04-07T11:51:08.178Z,18.64
2019-04-07T11:54:09.810Z,18.17
2019-04-07T11:56:53.601Z,19.21
2019-04-07T11:59:53.983Z,18.37
2019-04-07T12:02:46.985Z,18.65
2019-04-07T12:05:49.396Z,18.25
2019-04-07T12:08:32.356Z,17.63
2019-04-07T12:11:14.572Z,18.25
2019-04-07T12:14:09.011Z,18.29
2019-04-07T12:16:50.415Z,17.97
2019-04-07T12:19:43.138Z,17.99
2019-04-07T12:22:28.797Z,18.20
2019-04-07T12:25:05.750Z,18.52
2019-04-07T12:27:58.202Z,18.39
2019-04-07T12:30:32.696Z,19.06
2019-04-07T12:33:25.310Z,19.05
2019-04-07T12:36:02.062Z,17.97
2019-04-07T12:38:52.276Z,18.80
2019-04-07T12:41:40.069Z,18.10
2019-04-07T12:44:17.103Z,18.61
2019-04-07T12:47:08.003Z,18.80
2019-04-07T12:49:53.787Z,18.38
2019-04-07T12:52:39.264Z,18.75
2019-04-07T12:55:26.390Z,18.60
2019-04-07T12:58:04.897Z,18.39
2019-04-07T13:00:56.980Z,18.12
2019-04-07T13:03:25.529Z,18.27
2019-04-07T13:06:12.218Z,17.91
2019-04-07T13:08:56.931Z,18.34
2019-04-07T13:11:37.291Z,18.45
2019-04-07T13:14:22.610Z,18.77
2019-04-07T13:17:04.200Z,18.98
2019-04-07T13:20:09.547Z,18.49
2019-04-07T13:22:55.173Z,18.44
2019-04-07T13:25:38.604Z,17.72
2019-04-07T13:28:12.600Z,18.03
2019-04-07T13:31:02.939Z,17.72
2019-04-07T13:34:01.677Z,18.24
2019-04-07T13:36:51.900Z,17.95
2019-04-07T13:39:27.416Z,17.55
2019-04-07T13:42:29.272Z,17.89
2019-04-07T13:45:19.168Z,18.35
2019-04-07T13:47:52.472Z,19.37
2019-04-07T13:50:39.114Z,18.98
2019-04-07T13:53:27.035Z,18.44
2019-04-07T13:56:25.487Z,18.47
2019-04-07T13:59:01.092Z,18.68
2019-04-07T14:01:52.390Z,18.54
2019-04-07T14:04:36.091Z,17.97
2019-04-07T14:07:23.523Z,17.83
2019-04-07T14:10:05.005Z,18.36
2019-04-07T14:13:06.225Z,18.50
2019-04-07T14:16:11.614Z,18.48
2019-04-07T14:18:54.328Z,18.14
2019-04-07T14:21:30.644Z,18.42
2019-04-07T14:24:23.790Z,17.94
2019-04-07T14:27:00.987Z,17.69
2019-04-07T14:29:47.061Z,18.34
2019-04-07T14:32:32.812Z,18.38
2019-04-07T14:35:31.881Z,18.61
2019-04-07T14:38:27.658Z,18.43
2019-04-07T14:41:14.599Z,18.53
2019-04-07T14:43:54.049Z,18.62
2019-04-07T14:46:40.136Z,18.70
2019-04-07T14:49:28.682Z,18.24
2019-04-07T14:52:19.930Z,18.44
2019-04-07T14:55:22.654Z,18.21
2019-04-07T14:58:13.078Z,17.77
2019-04-07T15:01:02.654Z,17.32
2019-04-07T15:03:27.512Z,17.77
2019-04-07T15:05:57.977Z,18.29
2019-04-07T15:08:47.433Z,17.99
2019-04-07T15:11:34.405Z,17.82
2019-04-07T15:14:02.862Z,18.03
2019-04-07T15:16:30.754Z,17.82
2019-04-07T15:18:58.753Z,17.50
2019-04-07T15:21:27.436Z,17.96
2019-04-07T15:23:56.170Z,18.12
2019-04-07T15:26:24.747Z,18.39
2019-04-07T15:28:52.820Z,18.64
2019-04-07T15:31:21.619Z,18.35
2019-04-07T15:33:49.794Z,18.54
2019-04-07T15:36:19.559Z,18.51
2019-04-07T15:38:47.574Z,17.82
2019-04-07T15:41:17.890Z,18.05
2019-04-07T15:43:45.298Z,17.93
2019-04-07T15:46:17.347Z,17.94
2019-04-07T15:48:43.200Z,17.97
2019-04-07T15:51:13.209Z,18.02
2019-04-07T15:53:44.627Z,17.98
2019-04-07T15:56:13.967Z,17.96
2019-04-07T15:58:40.853Z,18.13
2019-04-07T16:01:09.437Z,18.05
2019-04-07T16:03:38.818Z,18.32
2019-04-07T16:06:07.720Z,17.72
2019-04-07T16:08:35.925Z,17.31
2019-04-07T16:11:03.829Z,17.23
2019-04-07T16:13:31.767Z,17.40
2019-04-07T16:15:59.986Z,17.90
2019-04-07T16:18:28.513Z,17.88
2019-04-07T16:20:56.395Z,17.81
2019-04-07T16:23:24.350Z,17.41
2019-04-07T16:25:52.370Z,17.38
2019-04-07T16:28:20.754Z,17.63
2019-04-07T16:30:51.778Z,17.81
2019-04-07T16:33:18.415Z,18.06
2019-04-07T16:35:50.997Z,18.08
2019-04-07T16:38:16.370Z,18.27
2019-04-07T16:40:44.687Z,18.21
2019-04-07T16:43:15.427Z,18.20
2019-04-07T16:45:44.948Z,17.86
2019-04-07T16:48:12.802Z,17.63
2019-04-07T16:50:41.793Z,17.59
2019-04-07T16:53:09.512Z,17.10
2019-04-07T16:55:37.432Z,17.32
2019-04-07T16:58:05.279Z,17.10
2019-04-07T17:00:33.254Z,17.26
2019-04-07T17:03:02.456Z,17.52
2019-04-07T17:05:30.378Z,17.61
2019-04-07T17:07:59.338Z,17.45
2019-04-07T17:10:30.982Z,17.28
2019-04-07T17:12:59.523Z,17.01
2019-04-07T17:15:26.321Z,17.08
2019-04-07T17:17:54.644Z,17.35
2019-04-07T17:20:25.899Z,17.37
2019-04-07T17:22:52.985Z,17.44
2019-04-07T17:25:21.697Z,17.44
2019-04-07T17:27:49.867Z,17.30
2019-04-07T17:30:18.939Z,16.74
2019-04-07T17:32:46.951Z,16.81
2019-04-07T17:35:17.229Z,17.08
2019-04-07T17:37:44.417Z,17.02
2019-04-07T17:40:15.638Z,17.07
2019-04-07T17:42:43.975Z,17.23
2019-04-07T17:45:37.462Z,17.20
2019-04-07T17:48:46.613Z,17.26
2019-04-07T17:51:12.862Z,17.21
2019-04-07T17:54:00.594Z,17.04
2019-04-07T17:56:45.579Z,16.99
2019-04-07T17:59:37.739Z,17.07
2019-04-07T18:02:47.630Z,16.57
2019-04-07T18:05:33.006Z,16.57
2019-04-07T18:08:15.831Z,16.58
2019-04-07T18:10:54.142Z,16.80
2019-04-07T18:13:49.731Z,16.81
2019-04-07T18:16:46.178Z,16.74
2019-04-07T18:19:32.848Z,16.71
2019-04-07T18:22:18.243Z,16.72
2019-04-07T18:25:07.104Z,16.90
2019-04-07T18:28:00.234Z,16.42
2019-04-07T18:30:53.891Z,16.33
2019-04-07T18:33:41.396Z,16.56
2019-04-07T18:36:28.797Z,15.96
2019-04-07T18:39:17.339Z,16.14
2019-04-07T18:42:06.550Z,15.93
2019-04-07T18:44:52.163Z,15.74
2019-04-07T18:47:45.548Z,15.66
2019-04-07T18:50:26.240Z,15.29
2019-04-07T18:53:04.533Z,15.79
2019-04-07T18:55:50.458Z,15.72
2019-04-07T18:58:51.650Z,15.07
2019-04-07T19:01:38.984Z,15.23
2019-04-07T19:04:26.620Z,14.85
2019-04-07T19:06:58.705Z,14.89
2019-04-07T19:09:39.241Z,14.92
2019-04-07T19:12:20.448Z,15.08
2019-04-07T19:15:15.607Z,14.81
2019-04-07T19:18:20.905Z,15.04
2019-04-07T19:21:09.917Z,15.02
2019-04-07T19:23:58.647Z,15.02
2019-04-07T19:26:52.305Z,15.04
2019-04-07T19:29:49.909Z,14.69
2019-04-07T19:32:34.340Z,14.56
2019-04-07T19:35:21.775Z,14.63
2019-04-07T19:38:03.390Z,14.89
2019-04-07T19:40:49.352Z,15.14
2019-04-07T19:43:43.733Z,15.32
2019-04-07T19:46:32.944Z,15.12
2019-04-07T19:49:20.424Z,15.01
2019-04-07T19:52:07.046Z,15.31
2019-04-07T19:54:51.428Z,15.04
2019-04-07T19:57:47.003Z,15.03
2019-04-07T20:00:51.649Z,15.26
2019-04-07T20:03:39.853Z,15.00
2019-04-07T20:06:17.109Z,14.33
2019-04-07T20:09:07.681Z,14.69
2019-04-07T20:11:39.942Z,14.66
2019-04-07T20:14:15.437Z,14.57
2019-04-07T20:17:04.324Z,15.12
2019-04-07T20:19:42.895Z,15.12
2019-04-07T20:22:28.134Z,14.87
2019-04-07T20:25:16.990Z,15.00
2019-04-07T20:27:56.044Z,15.10
2019-04-07T20:30:52.432Z,14.34
2019-04-07T20:33:38.109Z,14.89
2019-04-07T20:36:23.005Z,14.85
2019-04-07T20:39:00.468Z,14.87
2019-04-07T20:41:56.763Z,14.76
2019-04-07T20:44:38.274Z,14.68
2019-04-07T20:47:26.361Z,14.52
2019-04-07T20:50:10.714Z,14.52
2019-04-07T20:53:10.148Z,14.14
2019-04-07T20:55:58.289Z,14.32
2019-04-07T20:58:55.281Z,14.53
2019-04-07T21:01:36.692Z,14.42
2019-04-07T21:04:28.947Z,14.69
2019-04-07T21:07:24.869Z,14.26
2019-04-07T21:10:12.499Z,14.34
2019-04-07T21:13:05.753Z,14.68
2019-04-07T21:16:01.577Z,14.48
2019-04-07T21:18:50.492Z,14.46
2019-04-07T21:21:43.925Z,14.17
2019-04-07T21:24:21.870Z,14.42
2019-04-07T21:27:02.578Z,14.39
2019-04-07T21:29:55.168Z,14.43
2019-04-07T21:32:31.160Z,14.42
2019-04-07T21:35:17.112Z,14.27
2019-04-07T21:38:22.900Z,14.23
2019-04-07T21:41:08.232Z,14.22
2019-04-07T21:43:55.498Z,14.34
2019-04-07T21:46:52.099Z,14.32
2019-04-07T21:49:51.480Z,14.27
2019-04-07T21:52:45.095Z,14.51
2019-04-07T21:55:34.578Z,14.29
2019-04-07T21:58:24.917Z,14.27
2019-04-07T22:01:14.605Z,14.05
2019-04-07T22:03:49.701Z,13.98
2019-04-07T22:06:33.497Z,14.39
2019-04-07T22:09:23.224Z,14.39
2019-04-07T22:11:54.583Z,14.56
2019-04-07T22:14:21.325Z,14.63
2019-04-07T22:16:49.175Z,14.81
2019-04-07T22:19:17.714Z,14.68
2019-04-07T22:21:45.697Z,14.61
2019-04-07T22:24:14.034Z,14.62
2019-04-07T22:26:47.047Z,14.62
2019-04-07T22:29:11.891Z,14.11
2019-04-07T22:31:51.524Z,14.12
2019-04-07T22:34:19.382Z,14.57
2019-04-07T22:36:47.951Z,14.50
2019-04-07T22:39:16.316Z,14.42
2019-04-07T22:41:44.265Z,14.19
2019-04-07T22:44:12.025Z,14.29
2019-04-07T22:46:39.776Z,13.93
2019-04-07T22:49:07.519Z,13.27
2019-04-07T22:51:35.344Z,13.52
2019-04-07T22:54:03.127Z,13.15
2019-04-07T22:56:31.163Z,13.56
2019-04-07T22:58:59.156Z,13.50
2019-04-07T23:01:27.259Z,13.74
2019-04-07T23:03:56.008Z,13.71
2019-04-07T23:06:24.494Z,13.26
2019-04-07T23:08:53.069Z,13.69
2019-04-07T23:11:21.096Z,13.37
2019-04-07T23:13:49.340Z,13.07
2019-04-07T23:16:17.984Z,12.86
2019-04-07T23:18:46.825Z,12.83
2019-04-07T23:21:15.026Z,13.47
2019-04-07T23:23:42.932Z,13.66
2019-04-07T23:26:10.788Z,13.95
2019-04-07T23:28:39.067Z,14.14
2019-04-07T23:31:07.527Z,13.87
2019-04-07T23:33:36.123Z,14.03
2019-04-07T23:36:04.211Z,13.83
2019-04-07T23:38:33.746Z,14.07
2019-04-07T23:41:01.420Z,14.26
2019-04-07T23:43:29.210Z,13.72
2019-04-07T23:45:56.926Z,13.83
2019-04-07T23:48:24.722Z,13.70
2019-04-07T23:50:52.452Z,14.18
2019-04-07T23:53:20.243Z,14.13
2019-04-07T23:55:48.465Z,14.06
2019-04-07T23:58:16.796Z,14.29
